Time;durP1;ratioP1;P1;durP2;ratioP2;P2;SDS_P1;SDS_P2;PMS_P1;PMS_P2;Temp;Humidity;BMP_temperature;BMP_pressure;BME280_temperature;BME280_humidity;BME280_pressure;Samples;Min_cycle;Max_cycle;Signal;HPM_P1;HPM_P2
2022/01/07 00:03:57;;;;;;;12.32;8.45;;;4.10;85.20;;;;;;10943954;32;20069;-69
2022/01/07 00:09:59;;;;;;;17.12;12.45;;;4.10;85.20;;;;;;10944600;32;20026;-69
2022/01/07 00:16:02;;;;;;;12.15;8.18;;;4.10;85.10;;;;;;10944445;32;20034;-69
2022/01/07 00:22:05;;;;;;;11.32;6.03;;;4.00;85.10;;;;;;10943394;32;20041;-69
2022/01/07 00:28:07;;;;;;;10.90;6.20;;;4.00;85.10;;;;;;10944043;32;20034;-69
2022/01/07 00:34:09;;;;;;;11.35;6.50;;;3.90;85.10;;;;;;10943802;32;20030;-69
2022/01/07 00:40:17;;;;;;;8.70;7.12;;;3.80;85.10;;;;;;10943358;32;20046;-69
2022/01/07 00:46:20;;;;;;;10.30;5.10;;;3.80;85.20;;;;;;10943142;32;20019;-69
2022/01/07 00:52:23;;;;;;;10.65;7.00;;;3.70;85.10;;;;;;10943154;32;20399;-69
2022/01/07 00:58:26;;;;;;;8.15;5.30;;;3.70;85.10;;;;;;10943001;32;20045;-69
2022/01/07 01:04:29;;;;;;;12.57;8.30;;;3.60;85.20;;;;;;10942723;32;20031;-69
2022/01/07 01:10:31;;;;;;;13.60;7.97;;;3.70;85.10;;;;;;10942388;32;20035;-69
2022/01/07 01:16:34;;;;;;;10.25;7.43;;;3.60;85.20;;;;;;10942441;32;20061;-69
2022/01/07 01:22:37;;;;;;;11.18;8.50;;;3.70;85.20;;;;;;10942198;32;20046;-69
2022/01/07 01:28:39;;;;;;;12.10;8.38;;;3.60;85.20;;;;;;10942205;32;20023;-69
2022/01/07 01:34:42;;;;;;;11.88;8.02;;;3.50;85.40;;;;;;10941141;32;20045;-69
2022/01/07 01:40:44;;;;;;;11.90;8.35;;;3.50;85.60;;;;;;10941824;32;20064;-69
2022/01/07 01:46:47;;;;;;;10.18;5.10;;;3.50;85.60;;;;;;10942703;27;20043;-69
2022/01/07 01:52:53;;;;;;;10.52;6.97;;;3.60;85.50;;;;;;10955467;32;20027;-73
2022/01/07 01:58:56;;;;;;;9.30;5.40;;;3.60;85.50;;;;;;10949269;32;20053;-73
2022/01/07 02:04:58;;;;;;;9.07;5.18;;;3.50;85.50;;;;;;10945404;32;20319;-73
2022/01/07 02:11:00;;;;;;;11.20;6.07;;;3.50;85.40;;;;;;10948803;32;20053;-72
2022/01/07 02:17:10;;;;;;;8.02;5.32;;;3.50;85.40;;;;;;10948745;32;20014;-72
2022/01/07 02:23:12;;;;;;;;;;;3.40;85.40;;;;;;10960540;32;20031;-72
2022/01/07 02:29:14;;;;;;;9.07;5.68;;;3.40;85.30;;;;;;10948448;32;20226;-72
2022/01/07 02:35:19;;;;;;;9.35;4.87;;;3.40;85.30;;;;;;10948095;32;20433;-72
2022/01/07 02:41:21;;;;;;;8.30;4.60;;;3.30;85.30;;;;;;10947791;32;20035;-72
2022/01/07 02:47:26;;;;;;;5.85;3.95;;;3.30;85.50;;;;;;10947125;32;20027;-72
2022/01/07 02:53:29;;;;;;;8.95;5.15;;;3.20;85.40;;;;;;10947301;32;20027;-72
2022/01/07 02:59:31;;;;;;;8.05;4.10;;;3.20;85.60;;;;;;10958971;32;20081;-72
2022/01/07 03:05:34;;;;;;;6.57;3.50;;;3.20;85.50;;;;;;10946779;32;20058;-72
2022/01/07 03:11:37;;;;;;;10.10;4.57;;;3.20;85.60;;;;;;10946811;32;20434;-72
2022/01/07 03:17:40;;;;;;;5.95;3.12;;;3.20;85.60;;;;;;10942872;32;20027;-72
2022/01/07 03:23:42;;;;;;;7.40;4.60;;;3.20;85.60;;;;;;10946449;32;20054;-72
2022/01/07 03:29:44;;;;;;;6.80;3.80;;;3.20;85.70;;;;;;10946116;32;20434;-72
2022/01/07 03:35:47;;;;;;;6.00;2.75;;;3.10;85.70;;;;;;10957692;32;20023;-72
2022/01/07 03:41:49;;;;;;;7.60;4.18;;;3.10;85.80;;;;;;10953055;32;20027;-72
2022/01/07 03:47:52;;;;;;;4.45;2.72;;;3.10;85.80;;;;;;10945630;32;20054;-72
2022/01/07 03:53:55;;;;;;;4.35;2.92;;;3.00;85.50;;;;;;10945310;32;20335;-72
2022/01/07 03:59:57;;;;;;;5.40;3.25;;;3.00;85.70;;;;;;10945213;32;20023;-72
2022/01/07 04:05:59;;;;;;;6.05;3.85;;;3.00;85.90;;;;;;10945116;32;20023;-72
2022/01/07 04:12:01;;;;;;;7.47;2.62;;;3.00;85.90;;;;;;10944854;32;20054;-72
2022/01/07 04:18:04;;;;;;;6.18;3.15;;;3.00;85.90;;;;;;10943927;32;20024;-72
2022/01/07 04:24:06;;;;;;;2.67;1.80;;;3.10;85.90;;;;;;10944407;32;20407;-72
2022/01/07 04:30:09;;;;;;;2.45;1.62;;;3.00;85.80;;;;;;10943975;32;20031;-73
2022/01/07 04:36:11;;;;;;;2.40;1.50;;;3.00;85.90;;;;;;10943889;32;20080;-73
2022/01/07 04:42:13;;;;;;;3.72;2.55;;;3.00;85.90;;;;;;10943658;32;20065;-72
2022/01/07 04:48:16;;;;;;;3.35;2.33;;;3.00;85.90;;;;;;10943513;32;20403;-72
2022/01/07 04:54:18;;;;;;;4.12;2.33;;;3.00;85.90;;;;;;10954772;32;20447;-69
2022/01/07 05:00:22;;;;;;;2.25;1.33;;;3.00;85.90;;;;;;10942934;32;20031;-70
2022/01/07 05:12:33;;;;;;;2.72;1.27;;;2.90;86.00;;;;;;10942593;32;20023;-73
2022/01/07 05:18:35;;;;;;;2.30;1.30;;;2.90;86.10;;;;;;10942495;32;20049;-73
2022/01/07 05:24:37;;;;;;;2.10;1.05;;;2.90;86.10;;;;;;10942287;32;20022;-73
2022/01/07 05:30:39;;;;;;;1.87;1.25;;;2.80;86.10;;;;;;10942099;32;20027;-72
2022/01/07 05:36:42;;;;;;;2.00;1.40;;;2.80;86.30;;;;;;10942070;32;20047;-73
2022/01/07 05:42:44;;;;;;;3.53;2.35;;;2.90;86.30;;;;;;10941810;32;20034;-73
2022/01/07 05:48:47;;;;;;;5.18;2.20;;;2.90;86.30;;;;;;10953522;32;20010;-73
2022/01/07 05:54:50;;;;;;;3.15;1.17;;;2.90;86.10;;;;;;10941741;32;20027;-73
2022/01/07 06:00:52;;;;;;;3.15;2.05;;;2.80;85.90;;;;;;10941582;32;20031;-73
2022/01/07 06:06:55;;;;;;;1.67;1.58;;;2.80;85.70;;;;;;10941464;32;20035;-73
2022/01/07 06:12:57;;;;;;;4.12;1.83;;;2.80;85.70;;;;;;10941305;32;20022;-72
2022/01/07 06:18:59;;;;;;;2.83;1.75;;;2.70;86.00;;;;;;10941155;32;20023;-69
2022/01/07 06:25:02;;;;;;;12.07;5.43;;;2.70;86.10;;;;;;10941186;32;20015;-69
2022/01/07 06:31:04;;;;;;;9.05;4.80;;;2.70;86.00;;;;;;10941032;32;20070;-70
2022/01/07 06:37:06;;;;;;;5.03;2.60;;;2.70;85.80;;;;;;10941166;32;20027;-73
2022/01/07 06:43:08;;;;;;;3.60;2.20;;;2.70;85.80;;;;;;10947434;32;20023;-73
2022/01/07 06:49:10;;;;;;;3.55;1.92;;;2.60;85.60;;;;;;10947692;32;20061;-73
2022/01/07 06:55:12;;;;;;;4.00;2.62;;;2.70;85.90;;;;;;10947352;32;20035;-73
2022/01/07 07:01:15;;;;;;;2.85;1.90;;;2.60;86.10;;;;;;10947389;32;20049;-73
2022/01/07 07:07:17;;;;;;;5.45;2.33;;;2.60;86.30;;;;;;10946981;32;20018;-73
2022/01/07 07:13:19;;;;;;;3.37;2.53;;;2.60;86.30;;;;;;10946633;32;20027;-73
2022/01/07 07:19:22;;;;;;;3.42;2.42;;;2.50;86.20;;;;;;10946451;32;20059;-73
2022/01/07 07:25:28;;;;;;;1.67;1.25;;;2.50;86.30;;;;;;10946354;32;20403;-73
2022/01/07 07:31:31;;;;;;;1.92;1.15;;;2.60;86.40;;;;;;10946278;32;20032;-73
2022/01/07 07:37:33;;;;;;;4.55;2.00;;;2.60;86.40;;;;;;10945794;32;20376;-73
2022/01/07 07:43:36;;;;;;;5.32;2.50;;;2.60;86.30;;;;;;10945676;32;20023;-73
2022/01/07 07:49:39;;;;;;;3.97;2.17;;;2.60;86.40;;;;;;10944540;32;20026;-73
2022/01/07 07:55:41;;;;;;;4.22;2.15;;;2.60;86.40;;;;;;10944959;32;20031;-73
2022/01/07 08:01:43;;;;;;;4.22;1.75;;;2.70;86.40;;;;;;10944453;32;20023;-73
2022/01/07 08:07:46;;;;;;;6.22;3.47;;;2.80;86.40;;;;;;10944999;32;20050;-73
2022/01/07 08:20:12;;;;;;;3.42;2.30;;;2.70;85.70;;;;;;10944437;32;20327;-73
2022/01/07 08:26:16;;;;;;;5.35;3.03;;;2.80;85.60;;;;;;10953023;32;20053;-69
2022/01/07 08:38:39;;;;;;;5.85;2.60;;;2.90;84.70;;;;;;10943694;32;20019;-69
2022/01/07 08:44:41;;;;;;;5.05;3.00;;;3.00;85.30;;;;;;10943594;32;20024;-69
2022/01/07 08:50:47;;;;;;;3.05;1.70;;;3.00;85.20;;;;;;10942769;32;20053;-69
2022/01/07 08:56:55;;;;;;;4.00;2.37;;;3.10;85.40;;;;;;10942971;32;20027;-69
2022/01/07 09:02:58;;;;;;;3.78;2.45;;;3.20;85.40;;;;;;10941333;32;20053;-69
2022/01/07 09:09:00;;;;;;;10.18;2.60;;;3.20;85.20;;;;;;10940186;32;20054;-70
2022/01/07 09:15:15;;;;;;;6.97;2.20;;;3.30;84.80;;;;;;10942313;32;20447;-69
2022/01/07 09:21:20;;;;;;;5.80;2.22;;;3.40;84.70;;;;;;10941086;32;20041;-69
2022/01/07 09:27:22;;;;;;;5.45;1.83;;;3.50;84.40;;;;;;10940128;32;20426;-69
2022/01/07 09:33:24;;;;;;;4.32;2.08;;;3.60;84.40;;;;;;10941926;32;20038;-69
2022/01/07 09:39:27;;;;;;;7.82;2.75;;;3.70;84.60;;;;;;10938084;32;20019;-69
2022/01/07 09:45:30;;;;;;;3.72;2.35;;;3.70;84.20;;;;;;10968329;27;20039;-69
2022/01/07 09:51:37;;;;;;;3.47;1.75;;;3.70;83.90;;;;;;10979197;32;20446;-69
2022/01/07 09:57:39;;;;;;;4.57;2.03;;;3.80;83.60;;;;;;10979214;32;20023;-69
2022/01/07 10:03:42;;;;;;;3.45;2.17;;;3.90;82.80;;;;;;10979156;32;20392;-69
2022/01/07 10:09:58;;;;;;;2.78;1.40;;;3.90;82.30;;;;;;10978265;32;20019;-69
2022/01/07 10:16:13;;;;;;;3.17;1.83;;;4.00;82.70;;;;;;10983836;32;20045;-70
2022/01/07 10:22:16;;;;;;;2.45;1.50;;;4.10;81.80;;;;;;10986112;32;20038;-69
2022/01/07 10:28:34;;;;;;;6.45;3.78;;;4.20;81.70;;;;;;10986085;32;20053;-69
2022/01/07 10:34:35;;;;;;;7.87;2.65;;;4.20;82.00;;;;;;10985040;32;20045;-70
2022/01/07 10:40:39;;;;;;;5.78;2.20;;;4.40;82.40;;;;;;10981084;32;20026;-70
2022/01/07 10:46:53;;;;;;;5.15;2.20;;;4.50;81.20;;;;;;10984591;32;20018;-71
2022/01/07 10:53:30;;;;;;;6.05;2.53;;;4.60;81.20;;;;;;10984957;32;20313;-69
2022/01/07 11:00:20;;;;;;;4.10;1.80;;;4.70;80.00;;;;;;10794175;33;20102;-70
2022/01/07 11:06:23;;;;;;;2.57;1.87;;;4.90;80.30;;;;;;10790508;33;20329;-73
2022/01/07 11:12:28;;;;;;;3.75;1.85;;;5.10;79.80;;;;;;10773604;33;20346;-73
2022/01/07 11:18:31;;;;;;;3.20;1.75;;;5.40;79.50;;;;;;10781754;33;20036;-73
2022/01/07 11:24:39;;;;;;;5.75;1.80;;;5.50;77.30;;;;;;10789941;33;20052;-73
2022/01/07 11:30:46;;;;;;;2.85;1.67;;;5.70;76.80;;;;;;10855962;32;20053;-73
2022/01/07 11:37:37;;;;;;;4.20;1.98;;;6.00;76.70;;;;;;10866993;32;20143;-74
2022/01/07 11:43:48;;;;;;;5.87;1.65;;;6.20;76.30;;;;;;10866791;32;20035;-73
2022/01/07 11:50:07;;;;;;;2.80;1.48;;;6.40;75.50;;;;;;10867091;32;20042;-73
2022/01/07 11:56:36;;;;;;;6.60;1.90;;;6.40;75.00;;;;;;10982900;32;20022;-69
2022/01/07 12:03:02;;;;;;;2.87;1.53;;;6.40;74.30;;;;;;10959563;32;20418;-69
2022/01/07 12:09:37;;;;;;;3.97;2.30;;;6.50;74.40;;;;;;10790692;33;20028;-70
2022/01/07 12:15:57;;;;;;;2.03;1.35;;;6.60;74.30;;;;;;10647606;33;20398;-70
2022/01/07 12:22:00;;;;;;;5.90;1.92;;;6.50;73.20;;;;;;10646539;33;20052;-70
2022/01/07 12:28:30;;;;;;;3.17;1.58;;;6.40;72.70;;;;;;10645762;33;20022;-69
2022/01/07 12:34:37;;;;;;;4.35;2.28;;;6.40;72.60;;;;;;10646026;33;20065;-69
2022/01/07 12:40:40;;;;;;;3.33;1.80;;;6.40;72.00;;;;;;10642501;33;20048;-70
2022/01/07 12:46:49;;;;;;;4.50;2.12;;;6.40;72.70;;;;;;10774929;33;20024;-69
2022/01/07 12:52:51;;;;;;;;;;;6.50;71.90;;;;;;10926650;32;20384;-69
2022/01/07 12:58:54;;;;;;;3.40;2.10;;;6.50;71.60;;;;;;10942255;32;19961;-69
2022/01/07 13:12:08;;;;;;;3.70;2.30;;;6.60;69.40;;;;;;10785312;32;20031;-69
2022/01/07 13:18:37;;;;;;;5.97;2.90;;;6.60;68.80;;;;;;10789293;32;20036;-70
2022/01/07 13:24:40;;;;;;;3.17;1.27;;;6.70;68.40;;;;;;10789959;32;20059;-69
2022/01/07 13:30:46;;;;;;;4.18;1.95;;;6.80;68.50;;;;;;10789709;32;20032;-69
2022/01/07 13:37:13;;;;;;;3.55;1.85;;;6.90;68.30;;;;;;10786689;32;20028;-69
2022/01/07 13:43:16;;;;;;;4.40;1.95;;;7.10;67.70;;;;;;10813254;32;20031;-70
2022/01/07 13:49:19;;;;;;;4.32;1.65;;;7.20;66.80;;;;;;10946159;32;20049;-69
2022/01/07 13:55:28;;;;;;;3.85;1.83;;;7.20;66.10;;;;;;10947702;32;20096;-69
2022/01/07 14:01:30;;;;;;;5.20;2.67;;;7.20;66.40;;;;;;10948526;32;20060;-69
2022/01/07 14:07:53;;;;;;;3.37;1.67;;;7.20;66.50;;;;;;10935287;32;20035;-69
2022/01/07 14:14:15;;;;;;;3.70;1.60;;;7.20;65.90;;;;;;10948107;32;20057;-69
2022/01/07 14:20:18;;;;;;;5.37;2.03;;;7.20;65.40;;;;;;10933747;32;20043;-69
2022/01/07 14:27:22;;;;;;;2.85;1.73;;;7.70;65.40;;;;;;10946392;32;20397;-69
2022/01/07 14:33:24;;;;;;;3.30;1.48;;;8.20;64.80;;;;;;10795976;32;20044;-69
2022/01/07 14:39:26;;;;;;;4.68;2.03;;;8.70;65.00;;;;;;10792513;33;20066;-69
2022/01/07 14:45:28;;;;;;;8.80;2.72;;;9.20;63.50;;;;;;10393435;33;11885727;-69
2022/01/07 14:51:30;;;;;;;7.05;2.58;;;9.30;63.70;;;;;;10720945;33;20021;-69
2022/01/07 14:57:33;;;;;;;6.03;3.12;;;8.70;64.70;;;;;;10721499;33;20033;-69
2022/01/07 15:03:39;;;;;;;3.67;1.90;;;8.00;66.50;;;;;;10756784;32;20024;-69
2022/01/07 15:09:42;;;;;;;2.65;1.50;;;7.60;67.50;;;;;;10892466;32;20031;-69
2022/01/07 15:22:04;;;;;;;3.15;1.52;;;6.70;69.30;;;;;;10945590;32;20347;-69
2022/01/07 15:28:18;;;;;;;3.43;1.53;;;6.40;70.10;;;;;;10945473;32;20399;-69
2022/01/07 15:34:20;;;;;;;1.25;1.12;;;6.20;70.60;;;;;;10955828;32;20057;-69
2022/01/07 15:40:38;;;;;;;3.55;1.98;;;6.00;71.30;;;;;;10951735;32;20027;-69
2022/01/07 15:46:41;;;;;;;3.70;1.75;;;5.80;71.90;;;;;;10945608;32;20019;-72
2022/01/07 15:52:44;;;;;;;3.40;2.08;;;5.60;72.50;;;;;;10945495;32;20085;-72
2022/01/07 15:58:48;;;;;;;4.87;2.75;;;5.40;73.00;;;;;;10945074;32;20015;-72
2022/01/07 16:04:50;;;;;;;4.93;2.80;;;5.30;73.50;;;;;;10941435;32;20031;-72
2022/01/07 16:10:54;;;;;;;5.35;2.75;;;5.20;74.00;;;;;;10943302;32;20061;-72
2022/01/07 16:16:57;;;;;;;5.97;3.17;;;5.10;74.40;;;;;;10943395;32;20027;-72
2022/01/07 16:23:27;;;;;;;9.48;4.20;;;5.00;74.80;;;;;;10942238;32;20034;-72
2022/01/07 16:29:34;;;;;;;6.65;3.22;;;4.90;75.10;;;;;;10944054;32;20057;-72
2022/01/07 16:35:36;;;;;;;5.35;3.10;;;4.90;75.40;;;;;;10941207;32;20057;-72
2022/01/07 16:41:38;;;;;;;3.95;2.55;;;4.80;75.70;;;;;;10943653;32;20045;-72
2022/01/07 16:47:43;;;;;;;4.60;2.75;;;4.70;76.00;;;;;;10929632;32;20019;-72
2022/01/07 16:53:45;;;;;;;11.25;5.68;;;4.70;76.30;;;;;;10943058;32;20031;-72
2022/01/07 16:59:48;;;;;;;8.35;4.85;;;4.60;76.60;;;;;;10942583;32;20015;-72
2022/01/07 17:05:50;;;;;;;17.62;8.93;;;4.60;76.80;;;;;;10965924;32;20034;-72
2022/01/07 17:11:53;;;;;;;8.88;5.28;;;4.50;77.00;;;;;;10948376;32;20026;-72
2022/01/07 17:17:55;;;;;;;8.75;4.45;;;4.40;77.20;;;;;;10942296;32;20035;-72
2022/01/07 17:24:08;;;;;;;13.43;8.73;;;4.40;77.40;;;;;;10942029;32;20069;-72
2022/01/07 17:30:10;;;;;;;18.37;11.93;;;4.40;77.50;;;;;;10942044;32;20023;-72
2022/01/07 17:36:13;;;;;;;14.87;9.00;;;4.30;77.80;;;;;;10941396;32;20422;-72
2022/01/07 17:42:15;;;;;;;11.90;7.85;;;4.30;78.10;;;;;;10945476;27;20027;-71
2022/01/07 17:48:18;;;;;;;11.40;7.07;;;4.20;78.40;;;;;;10941693;32;20011;-72
2022/01/07 17:54:20;;;;;;;11.18;7.87;;;4.20;78.50;;;;;;10941645;32;20030;-68
2022/01/07 18:00:23;;;;;;;11.75;9.10;;;4.20;78.60;;;;;;10937949;32;20316;-68
2022/01/07 18:06:26;;;;;;;14.25;9.13;;;4.10;78.90;;;;;;10941307;32;20028;-69
2022/01/07 18:12:29;;;;;;;10.00;6.30;;;4.10;79.40;;;;;;10937658;32;20035;-69
2022/01/07 18:18:38;;;;;;;10.38;6.70;;;4.10;79.60;;;;;;10941187;32;20342;-69
2022/01/07 18:24:40;;;;;;;10.32;6.82;;;4.00;79.60;;;;;;10941184;32;20027;-72
2022/01/07 18:30:43;;;;;;;27.30;16.80;;;3.90;79.70;;;;;;10941041;32;20065;-72
2022/01/07 18:36:45;;;;;;;10.88;7.05;;;3.90;79.80;;;;;;10945155;32;20061;-72
2022/01/07 18:42:47;;;;;;;14.90;8.10;;;3.90;79.80;;;;;;10947907;32;20320;-69
2022/01/07 18:48:50;;;;;;;15.73;8.63;;;3.90;79.90;;;;;;10947740;32;20317;-69
2022/01/07 18:55:29;;;;;;;13.40;8.73;;;3.90;79.90;;;;;;10947080;32;20053;-69
2022/01/07 19:01:33;;;;;;;10.27;6.28;;;3.90;80.10;;;;;;10869065;32;20046;-69
2022/01/07 19:07:35;;;;;;;13.82;6.43;;;3.90;80.40;;;;;;10867908;32;20008;-69
2022/01/07 19:13:39;;;;;;;12.73;9.35;;;3.90;80.50;;;;;;10866792;32;20035;-69
2022/01/07 19:19:41;;;;;;;10.88;7.60;;;3.80;81.00;;;;;;10868613;32;20388;-69
2022/01/07 19:25:43;;;;;;;17.02;11.52;;;3.80;81.40;;;;;;10864331;32;20027;-69
2022/01/07 19:31:46;;;;;;;21.15;15.20;;;3.70;81.50;;;;;;10867190;32;20039;-69
2022/01/07 19:37:50;;;;;;;17.48;11.27;;;3.70;81.70;;;;;;10921256;32;20307;-69
2022/01/07 19:43:52;;;;;;;24.40;16.92;;;3.60;81.80;;;;;;10945829;32;20019;-69
2022/01/07 19:50:03;;;;;;;18.25;14.82;;;3.50;81.90;;;;;;10943049;32;20120;-69
2022/01/07 19:56:05;;;;;;;12.70;9.63;;;3.40;81.90;;;;;;10945316;32;20050;-69
2022/01/07 20:02:08;;;;;;;24.40;15.75;;;3.40;82.00;;;;;;10945273;32;20023;-69
2022/01/07 20:08:13;;;;;;;22.92;14.93;;;3.40;82.10;;;;;;10945059;32;20042;-69
2022/01/07 20:14:16;;;;;;;13.88;10.65;;;3.30;82.30;;;;;;10944730;32;20034;-69
2022/01/07 20:20:18;;;;;;;16.65;13.15;;;3.40;82.60;;;;;;10944701;32;20391;-70
2022/01/07 20:26:20;;;;;;;22.75;14.87;;;3.30;82.60;;;;;;10943272;32;20027;-69
2022/01/07 20:32:22;;;;;;;27.40;17.37;;;3.40;82.70;;;;;;10944070;32;20050;-70
2022/01/07 20:38:26;;;;;;;15.00;9.77;;;3.40;82.70;;;;;;10942377;32;20084;-69
2022/01/07 20:44:28;;;;;;;22.83;15.07;;;3.30;82.60;;;;;;10943808;32;20019;-72
2022/01/07 20:50:37;;;;;;;13.57;10.35;;;3.30;82.60;;;;;;10943429;32;20038;-72
2022/01/07 20:56:52;;;;;;;16.92;11.88;;;3.20;82.60;;;;;;10942783;32;20027;-72
2022/01/07 21:02:54;;;;;;;19.80;12.80;;;3.20;82.60;;;;;;10967210;32;20080;-72
2022/01/07 21:08:56;;;;;;;15.80;10.48;;;3.20;82.60;;;;;;10979423;32;20068;-72
2022/01/07 21:14:59;;;;;;;15.35;9.02;;;3.10;82.60;;;;;;10980197;32;20046;-72
2022/01/07 21:21:08;;;;;;;17.37;11.45;;;3.10;82.60;;;;;;10955867;32;20069;-72
2022/01/07 21:27:40;;;;;;;16.45;11.10;;;3.00;82.60;;;;;;10928961;32;20027;-69
2022/01/07 21:34:17;;;;;;;17.58;11.85;;;3.00;82.60;;;;;;10826745;32;20046;-69
2022/01/07 21:40:35;;;;;;;10.88;8.25;;;3.00;82.60;;;;;;10822349;33;20039;-69
2022/01/07 21:46:37;;;;;;;15.23;11.35;;;2.90;82.60;;;;;;10822108;33;20411;-69
2022/01/07 21:52:40;;;;;;;10.25;7.18;;;2.90;82.70;;;;;;10821869;33;20023;-69
2022/01/07 21:58:42;;;;;;;10.43;7.00;;;2.90;82.80;;;;;;10825922;33;20028;-69
2022/01/07 22:04:44;;;;;;;13.00;8.38;;;2.80;82.80;;;;;;10854335;32;20023;-69
2022/01/07 22:10:47;;;;;;;12.30;6.78;;;2.80;82.90;;;;;;10944591;32;20045;-69
2022/01/07 22:16:49;;;;;;;8.13;5.90;;;2.80;83.00;;;;;;10948764;32;20038;-69
2022/01/07 22:22:53;;;;;;;7.55;4.12;;;2.90;83.10;;;;;;10935094;32;20384;-69
2022/01/07 22:28:55;;;;;;;9.60;5.20;;;2.90;83.10;;;;;;10926136;32;20438;-69
2022/01/07 22:34:58;;;;;;;9.77;4.85;;;2.80;83.20;;;;;;10910520;32;20360;-69
2022/01/07 22:41:01;;;;;;;8.15;4.85;;;2.80;83.20;;;;;;10909751;32;20015;-69
2022/01/07 22:47:04;;;;;;;8.85;7.15;;;2.70;83.30;;;;;;10910145;32;20024;-69
2022/01/07 22:53:07;;;;;;;7.53;4.75;;;2.70;83.30;;;;;;10909991;32;20372;-69
2022/01/07 22:59:09;;;;;;;8.27;3.35;;;2.70;83.30;;;;;;10909618;32;20049;-69
2022/01/07 23:05:11;;;;;;;10.45;6.93;;;2.60;83.30;;;;;;10906495;32;20457;-69
2022/01/07 23:11:13;;;;;;;6.50;3.60;;;2.50;83.30;;;;;;10909399;32;20058;-69
2022/01/07 23:17:19;;;;;;;10.73;6.90;;;2.60;83.30;;;;;;10909262;32;20019;-69
2022/01/07 23:23:21;;;;;;;9.88;5.30;;;2.40;83.30;;;;;;10908492;32;20109;-69
2022/01/07 23:29:23;;;;;;;7.40;4.62;;;2.40;83.30;;;;;;10929759;32;20041;-69
2022/01/07 23:35:25;;;;;;;9.63;5.22;;;2.40;83.30;;;;;;10941502;32;20026;-69
2022/01/07 23:41:28;;;;;;;9.45;4.07;;;2.30;83.30;;;;;;10946105;32;20020;-72
2022/01/07 23:47:31;;;;;;;8.93;4.78;;;2.30;83.40;;;;;;10945923;32;20030;-72
2022/01/07 23:53:33;;;;;;;6.43;3.03;;;2.20;83.30;;;;;;10945496;32;20015;-72
2022/01/07 23:59:36;;;;;;;6.68;3.80;;;2.20;83.30;;;;;;10945244;32;20367;-73
